Time;durP1;ratioP1;P1;durP2;ratioP2;P2;SDS_P1;SDS_P2;PMS_P1;PMS_P2;Temp;Humidity;BMP_temperature;BMP_pressure;BME280_temperature;BME280_humidity;BME280_pressure;Samples;Min_cycle;Max_cycle;Signal;HPM_P1;HPM_P2
2023/08/01 04:02:27;;;;;;;;;;;;;;;;;;;;;
2023/08/01 12:46:37;;;;;;;10.30;4.20;;;;;;;25.99;57.55;97952.60;110243;1236;110812;-90
2023/08/01 12:49:05;;;;;;;10.20;3.90;;;;;;;26.06;57.67;97951.84;109309;1239;96623;-90
2023/08/01 13:00:10;;;;;;;13.50;4.10;;;;;;;26.07;57.60;97943.45;109565;1235;96576;-92
2023/08/01 13:02:39;;;;;;;7.20;3.40;;;;;;;26.04;57.40;97940.99;109543;1236;109768;-90
2023/08/01 13:05:07;;;;;;;8.40;3.90;;;;;;;25.99;57.22;97942.04;109774;1237;96805;-92
2023/08/01 13:08:04;;;;;;;10.10;4.10;;;;;;;25.94;57.43;97942.85;109794;1236;107606;-91
2023/08/01 13:10:37;;;;;;;8.80;3.90;;;;;;;25.88;57.30;97941.05;109815;1235;96269;-92
2023/08/01 13:13:05;;;;;;;16.90;4.10;;;;;;;25.83;57.17;97942.14;109820;1235;96462;-92
2023/08/01 13:16:26;;;;;;;12.20;4.50;;;;;;;25.81;57.12;97940.13;109633;1240;110213;-91
2023/08/01 13:18:54;;;;;;;11.00;4.00;;;;;;;25.78;57.01;97935.86;109346;1236;96516;-93
2023/08/01 13:21:24;;;;;;;9.70;4.00;;;;;;;25.79;57.23;97927.81;109025;1241;107916;-91
2023/08/01 13:23:52;;;;;;;10.40;3.90;;;;;;;25.78;57.03;97932.98;108850;1235;96594;-91
2023/08/01 13:26:19;;;;;;;10.20;3.70;;;;;;;25.78;57.09;97926.99;108812;1236;96591;-92
2023/08/01 13:28:47;;;;;;;12.90;4.30;;;;;;;25.77;56.94;97928.92;108942;1239;95976;-90
2023/08/01 13:31:14;;;;;;;9.10;3.90;;;;;;;25.74;56.97;97931.24;109090;1236;97285;-91
2023/08/01 13:36:56;;;;;;;11.80;3.80;;;;;;;25.67;56.89;97925.50;109273;1239;96568;-91
2023/08/01 13:39:24;;;;;;;17.80;4.70;;;;;;;25.63;56.99;97927.90;108895;1236;96469;-89
2023/08/01 13:41:50;;;;;;;20.00;4.70;;;;;;;25.57;56.95;97922.55;108963;1241;96638;-91
2023/08/01 14:59:39;;;;;;;9.30;4.30;;;;;;;25.16;57.16;97872.87;111735;1232;94702;31
2023/08/01 15:02:07;;;;;;;10.50;3.90;;;;;;;25.15;56.98;97876.59;109362;1240;107376;-90
2023/08/01 15:04:40;;;;;;;18.20;5.30;;;;;;;25.12;57.06;97873.48;109526;1240;96709;-91
2023/08/01 15:07:08;;;;;;;13.00;5.40;;;;;;;25.11;57.09;97870.14;109568;1235;96742;-93
2023/08/01 15:09:35;;;;;;;13.90;5.30;;;;;;;25.08;57.15;97868.77;109400;1235;109550;-92
2023/08/01 15:16:14;;;;;;;14.40;4.60;;;;;;;24.93;57.11;97871.55;109361;1235;107572;-90
2023/08/01 15:18:49;;;;;;;10.10;4.10;;;;;;;24.87;57.12;97872.02;109138;1241;96526;-92
2023/08/01 15:21:18;;;;;;;9.70;3.90;;;;;;;24.81;57.02;97873.50;109118;1234;96402;-90
2023/08/01 15:23:48;;;;;;;15.40;4.10;;;;;;;24.74;56.96;97873.64;109011;1237;110423;-91
2023/08/01 15:26:15;;;;;;;8.70;4.00;;;;;;;24.68;56.90;97878.89;109186;1234;96572;-91
2023/08/01 15:28:44;;;;;;;9.40;3.90;;;;;;;24.62;57.07;97885.67;109201;1235;107528;-90
2023/08/01 15:31:14;;;;;;;11.40;4.10;;;;;;;24.59;57.03;97904.66;109095;1234;96615;-91
2023/08/01 15:37:38;;;;;;;12.60;4.20;;;;;;;24.14;57.12;97923.39;109682;1235;108452;-91
2023/08/01 15:40:08;;;;;;;8.50;3.90;;;;;;;23.83;57.37;97937.30;109326;1240;96577;-90
2023/08/01 15:42:36;;;;;;;9.20;4.00;;;;;;;23.51;57.49;97948.67;109415;1232;109674;-91
2023/08/01 15:45:08;;;;;;;13.80;4.10;;;;;;;23.17;57.57;97945.95;108937;1234;96561;-91
2023/08/01 15:47:35;;;;;;;17.80;4.10;;;;;;;22.90;57.45;97946.48;109239;1232;96718;-91
2023/08/01 15:50:03;;;;;;;9.80;4.00;;;;;;;22.64;57.56;97946.63;109385;1237;96595;-91
2023/08/01 15:52:30;;;;;;;7.60;3.70;;;;;;;22.47;57.64;97955.09;109412;1234;96545;-90
2023/08/01 15:54:58;;;;;;;8.50;4.20;;;;;;;22.32;58.09;97954.56;109228;1232;97487;-91
2023/08/01 15:57:32;;;;;;;9.00;4.40;;;;;;;22.18;58.01;97959.23;109833;1232;96524;-92
